CYCO

Details ICAO CYCO (YCO)
Name KUGLUKTUK
Region Canada
Timezone America/Cambridge_Bay (UTC-6.0)
Plans Departing 11
Arriving 18
Stats Elevation 74 ft / 23 m (AMSL)
Location 67.816667° -115.144028°
Runways 1
Magnetic Variation 17.294° E
Sunrise 2018-05-23 08:40:18 UTC / 2018-05-23 02:40:18 Local
Sunset 2018-05-24 06:37:16 UTC / 2018-05-24 00:37:16 Local
Advertisement - Login to hide

Runways

ID Width Length Bearing (true) Bearing (mag) Surface Threshold Offset Overrun Length
12T 100 ft / 30 m 5,497 ft / 1,676 m 121.07° 103.78° Gravel 0 ft / 0 m 0 ft / 0 m
30T 100 ft / 30 m 5,497 ft / 1,676 m 301.10° 283.81° Gravel 0 ft / 0 m 0 ft / 0 m

Map

Weather


0- 5 10 15 20 25 30 35+ Temperature / ° C

Clouds and Precipitation
Forecast for 2018-05-23 12:00 UTC. Updated 2 hours ago

Ground ~20,000 ft ~40,000 ft Winds

METAR

CYCO 231327Z 02011KT 1SM -FZDZ BR VV003 M04/M04 A2974 RMK FG8 SLP075

TAF

TAF AMD TAF AMD CYCO 231324Z 2313/2401 02010KT 2SM -FZDZ -SN BR OVC002 TEMPO 2313/2319 P6SM NSW SCT003 OVC008 PROB30 2313/2319 1/2SM FZFG OVC001 FM231900 05012KT P6SM OVC005 TEMPO 2319/2401 OVC010 RMK NXT FCST BY 231900Z

Frequencies

Unicom 122.10 MHz MANDATORY FREQ
Warning: Do not use this data for real-world aviation or navigation. No guarantee of current accuracy is given.